Time;durP1;ratioP1;P1;durP2;ratioP2;P2;SDS_P1;SDS_P2;PMS_P1;PMS_P2;Temp;Humidity;BMP_temperature;BMP_pressure;BME280_temperature;BME280_humidity;BME280_pressure;Samples;Min_cycle;Max_cycle;Signal;HPM_P1;HPM_P2
2021/07/09 00:02:25;;;;;;;7.67;5.33;;;19.40;99.50;;;;;;5052621;28;20678;-50
2021/07/09 00:04:52;;;;;;;6.63;4.37;;;19.40;99.40;;;;;;5052154;28;20660;-50
2021/07/09 00:07:20;;;;;;;5.80;5.30;;;19.40;99.40;;;;;;5052032;28;21256;-50
2021/07/09 00:09:48;;;;;;;6.73;4.43;;;19.40;99.40;;;;;;5063431;28;20629;-50
2021/07/09 00:12:15;;;;;;;5.77;5.27;;;19.30;99.30;;;;;;5054893;28;20637;-50
2021/07/09 00:14:42;;;;;;;9.20;4.20;;;19.40;99.30;;;;;;5067749;28;20990;-49
2021/07/09 00:17:09;;;;;;;5.70;3.73;;;19.40;99.40;;;;;;5051280;28;20646;-50
2021/07/09 00:19:37;;;;;;;7.47;5.40;;;19.30;99.30;;;;;;5051466;28;20637;-50
2021/07/09 00:22:04;;;;;;;5.13;4.60;;;19.40;99.40;;;;;;5051337;28;20693;-50
2021/07/09 00:24:33;;;;;;;5.03;4.63;;;19.40;99.30;;;;;;5052045;28;20622;-50
2021/07/09 00:27:03;;;;;;;6.23;5.60;;;19.40;99.30;;;;;;5051435;28;20661;-50
2021/07/09 00:29:30;;;;;;;7.30;4.80;;;19.40;99.30;;;;;;5051783;28;20626;-50
2021/07/09 00:31:57;;;;;;;6.70;4.57;;;19.40;99.30;;;;;;5052427;28;20620;-50
2021/07/09 00:34:25;;;;;;;4.73;4.17;;;19.40;99.30;;;;;;5051866;28;20622;-50
2021/07/09 00:36:52;;;;;;;4.80;4.40;;;19.40;99.30;;;;;;5053730;28;21022;-52
2021/07/09 00:39:19;;;;;;;8.37;5.20;;;19.40;99.30;;;;;;5071027;28;20676;-48
2021/07/09 00:41:48;;;;;;;5.53;5.00;;;19.40;99.30;;;;;;5070875;28;21208;-49
2021/07/09 00:44:15;;;;;;;6.63;6.07;;;19.50;99.20;;;;;;5052428;28;20658;-50
2021/07/09 00:46:42;;;;;;;4.53;4.10;;;19.50;99.20;;;;;;5031386;28;20647;-50
2021/07/09 00:49:11;;;;;;;5.00;4.60;;;19.50;99.20;;;;;;5031502;28;20650;-49
2021/07/09 00:51:38;;;;;;;9.87;4.83;;;19.40;99.20;;;;;;5049103;28;20650;-50
2021/07/09 00:54:05;;;;;;;7.30;5.60;;;19.40;99.20;;;;;;5051190;28;20669;-50
2021/07/09 00:56:33;;;;;;;5.27;4.77;;;19.40;99.20;;;;;;5050965;28;20692;-49
2021/07/09 00:59:01;;;;;;;7.17;4.90;;;19.40;99.30;;;;;;5051032;28;20630;-50
2021/07/09 01:01:28;;;;;;;7.87;4.10;;;19.40;99.30;;;;;;5050522;28;20618;-51
2021/07/09 01:03:56;;;;;;;6.20;5.30;;;19.40;99.40;;;;;;5051125;28;20708;-50
2021/07/09 01:06:23;;;;;;;4.47;4.07;;;19.40;99.30;;;;;;5050323;28;20666;-55
2021/07/09 01:08:50;;;;;;;5.10;4.60;;;19.40;99.30;;;;;;5050065;28;21167;-50
2021/07/09 01:11:19;;;;;;;4.67;4.27;;;19.30;99.30;;;;;;5050880;28;20629;-60
2021/07/09 01:13:46;;;;;;;8.10;4.80;;;19.30;99.40;;;;;;5051160;28;20622;-48
2021/07/09 01:16:15;;;;;;;6.63;5.47;;;19.20;99.50;;;;;;5051203;28;20653;-50
2021/07/09 01:18:42;;;;;;;4.07;3.73;;;19.20;99.60;;;;;;5070222;28;21196;-52
2021/07/09 01:21:09;;;;;;;7.90;4.90;;;19.20;99.70;;;;;;5064390;28;20673;-50
2021/07/09 01:23:37;;;;;;;6.27;4.97;;;19.10;99.70;;;;;;5050527;28;20697;-50
2021/07/09 01:26:06;;;;;;;7.90;5.47;;;19.10;99.80;;;;;;5049778;28;20808;-49
2021/07/09 01:28:33;;;;;;;5.50;5.10;;;19.10;99.90;;;;;;5058425;28;20934;-50
2021/07/09 01:31:00;;;;;;;5.20;4.20;;;19.20;99.90;;;;;;5059679;28;20703;-49
2021/07/09 01:33:28;;;;;;;4.97;4.47;;;19.20;99.90;;;;;;5053122;28;20690;-51
2021/07/09 01:35:55;;;;;;;6.10;5.20;;;19.20;99.90;;;;;;5069416;28;20699;-50
2021/07/09 01:38:22;;;;;;;4.83;4.43;;;19.20;99.90;;;;;;5053874;28;21221;-50
2021/07/09 01:40:49;;;;;;;5.80;5.30;;;19.30;99.90;;;;;;5049467;28;20658;-50
2021/07/09 01:43:18;;;;;;;4.30;4.00;;;19.30;99.90;;;;;;5049391;28;20759;-49
2021/07/09 01:45:45;;;;;;;5.13;4.63;;;19.30;99.90;;;;;;5048888;28;20724;-50
2021/07/09 01:48:13;;;;;;;5.03;3.93;;;19.30;99.90;;;;;;5048039;28;20990;-48
2021/07/09 01:50:40;;;;;;;5.87;5.37;;;19.30;99.90;;;;;;5048890;28;20669;-50
2021/07/09 01:53:07;;;;;;;6.40;5.30;;;19.30;99.90;;;;;;5048414;28;20654;-49
2021/07/09 01:55:34;;;;;;;5.57;5.07;;;19.30;99.90;;;;;;5048877;28;20666;-50
2021/07/09 01:58:01;;;;;;;6.87;6.13;;;19.30;99.90;;;;;;5058854;28;20661;-50
2021/07/09 02:00:30;;;;;;;9.73;5.93;;;19.20;99.90;;;;;;5068717;28;20653;-50
2021/07/09 02:02:57;;;;;;;7.63;6.97;;;19.20;99.90;;;;;;5068361;28;20688;-49
2021/07/09 02:05:25;;;;;;;9.23;6.10;;;19.20;99.90;;;;;;5058062;28;20668;-50
2021/07/09 02:07:54;;;;;;;6.17;5.67;;;19.10;99.90;;;;;;5049072;28;20812;-50
2021/07/09 02:10:22;;;;;;;5.70;5.20;;;19.10;99.90;;;;;;5048937;28;20658;-51
2021/07/09 02:12:50;;;;;;;5.90;4.83;;;19.00;99.90;;;;;;5049446;28;20649;-51
2021/07/09 02:15:17;;;;;;;5.43;4.93;;;19.10;99.90;;;;;;5052939;28;21158;-51
2021/07/09 02:17:46;;;;;;;5.30;4.80;;;19.00;99.90;;;;;;5052545;28;20687;-51
2021/07/09 02:20:18;;;;;;;6.00;5.50;;;19.00;99.90;;;;;;5053188;28;20660;-51
2021/07/09 02:22:46;;;;;;;4.60;4.20;;;19.00;99.90;;;;;;5052498;28;20681;-49
2021/07/09 02:25:13;;;;;;;5.60;5.20;;;19.00;99.90;;;;;;5052772;28;20664;-50
2021/07/09 02:27:41;;;;;;;7.00;6.07;;;19.10;99.90;;;;;;5063232;28;20729;-50
2021/07/09 02:30:10;;;;;;;5.07;4.67;;;19.00;99.90;;;;;;5064772;28;21180;-50
2021/07/09 02:32:38;;;;;;;6.53;5.93;;;19.00;99.90;;;;;;5072182;28;20980;-50
2021/07/09 02:35:07;;;;;;;6.87;5.80;;;19.00;99.90;;;;;;5072321;28;20703;-50
2021/07/09 02:37:34;;;;;;;6.17;5.50;;;19.00;99.90;;;;;;5072521;28;20692;-50
2021/07/09 02:40:01;;;;;;;6.57;5.97;;;19.00;99.90;;;;;;5071920;28;20663;-50
2021/07/09 02:42:29;;;;;;;8.30;6.53;;;19.00;99.90;;;;;;5062707;28;21245;-50
2021/07/09 02:44:56;;;;;;;7.03;6.50;;;19.00;99.90;;;;;;5052365;28;20687;-50
2021/07/09 02:47:23;;;;;;;7.73;5.23;;;18.90;99.90;;;;;;5052055;28;20693;-51
2021/07/09 02:49:50;;;;;;;6.70;6.10;;;18.90;99.90;;;;;;5051954;28;20622;-50
2021/07/09 02:52:19;;;;;;;6.13;5.60;;;18.90;99.90;;;;;;5052385;28;20653;-50
2021/07/09 02:54:46;;;;;;;6.13;5.63;;;18.80;99.90;;;;;;5052299;28;21186;-51
2021/07/09 02:57:13;;;;;;;11.97;6.67;;;18.80;99.90;;;;;;5052810;28;20764;-50
2021/07/09 02:59:40;;;;;;;7.87;6.57;;;18.80;99.90;;;;;;5052005;28;20672;-50
2021/07/09 03:02:08;;;;;;;6.43;5.83;;;18.80;99.90;;;;;;5057219;28;20653;-50
2021/07/09 03:04:35;;;;;;;7.30;5.33;;;18.70;99.90;;;;;;5059150;28;20729;-49
2021/07/09 03:07:02;;;;;;;6.93;6.23;;;18.70;99.90;;;;;;5052046;28;20678;-50
2021/07/09 03:09:31;;;;;;;7.13;5.40;;;18.70;99.90;;;;;;5070972;28;21249;-50
2021/07/09 03:11:58;;;;;;;7.77;6.27;;;18.60;99.90;;;;;;5072026;28;20675;-50
2021/07/09 03:14:25;;;;;;;8.63;7.73;;;18.50;99.90;;;;;;5070378;28;20621;-50
2021/07/09 03:16:52;;;;;;;7.17;6.57;;;18.50;99.90;;;;;;5051722;28;21143;-51
2021/07/09 03:19:20;;;;;;;7.10;6.30;;;18.50;99.90;;;;;;5060645;28;20657;-50
2021/07/09 03:21:47;;;;;;;7.17;6.30;;;18.50;99.90;;;;;;5051474;28;20668;-50
2021/07/09 03:24:14;;;;;;;6.87;6.17;;;18.60;99.90;;;;;;5051725;28;20690;-50
2021/07/09 03:26:43;;;;;;;6.50;5.90;;;18.60;99.90;;;;;;5033231;28;20693;-49
2021/07/09 03:29:10;;;;;;;6.57;6.00;;;18.60;99.90;;;;;;5053805;28;20675;-50
2021/07/09 03:31:37;;;;;;;7.37;6.77;;;18.50;99.90;;;;;;5065774;28;20661;-50
2021/07/09 03:34:04;;;;;;;6.70;6.10;;;18.50;99.90;;;;;;5059187;28;21263;-50
2021/07/09 03:36:31;;;;;;;7.30;6.60;;;18.40;99.90;;;;;;5071563;28;21079;-51
2021/07/09 03:38:59;;;;;;;7.47;6.77;;;18.40;99.90;;;;;;5070744;28;21150;-51
2021/07/09 03:41:26;;;;;;;6.90;6.20;;;18.40;99.90;;;;;;5071295;28;20648;-50
2021/07/09 03:43:54;;;;;;;7.13;5.73;;;18.30;99.90;;;;;;5070750;28;20680;-51
2021/07/09 03:46:22;;;;;;;6.60;6.10;;;18.30;99.90;;;;;;5051533;28;20696;-51
2021/07/09 03:48:49;;;;;;;9.27;5.80;;;18.40;99.90;;;;;;5050350;28;21154;-50
2021/07/09 03:51:16;;;;;;;6.87;6.27;;;18.40;99.90;;;;;;5051764;28;20646;-50
2021/07/09 03:53:43;;;;;;;6.00;5.40;;;18.40;99.90;;;;;;5051538;28;21068;-51
2021/07/09 03:56:10;;;;;;;6.67;6.07;;;18.50;99.90;;;;;;5051031;28;20646;-49
2021/07/09 03:58:38;;;;;;;7.37;5.90;;;18.40;99.90;;;;;;5051258;28;20626;-49
2021/07/09 04:01:09;;;;;;;7.33;6.80;;;18.40;99.90;;;;;;5059306;28;20649;-50
2021/07/09 04:03:37;;;;;;;5.53;5.13;;;18.50;99.90;;;;;;5070954;28;21068;-50
2021/07/09 04:06:04;;;;;;;7.40;5.73;;;18.50;99.90;;;;;;5049457;28;20693;-49
2021/07/09 04:08:31;;;;;;;7.80;7.00;;;18.50;99.90;;;;;;5050945;28;21148;-50
2021/07/09 04:10:58;;;;;;;6.83;6.23;;;18.50;99.90;;;;;;5058222;28;20878;-49
2021/07/09 04:13:25;;;;;;;6.43;5.90;;;18.50;99.90;;;;;;5068866;28;20613;-50
2021/07/09 04:15:53;;;;;;;10.87;5.30;;;18.50;99.90;;;;;;5058964;28;20745;-50
2021/07/09 04:18:21;;;;;;;7.27;6.67;;;18.50;99.90;;;;;;5070340;28;20665;-50
2021/07/09 04:20:48;;;;;;;6.60;6.10;;;18.60;99.90;;;;;;5057236;28;21026;-49
2021/07/09 04:23:15;;;;;;;6.97;5.73;;;18.60;99.90;;;;;;5050481;28;20650;-50
2021/07/09 04:25:43;;;;;;;6.27;5.67;;;18.60;99.90;;;;;;5057250;28;20633;-48
2021/07/09 04:28:10;;;;;;;6.13;5.63;;;18.60;99.90;;;;;;5069730;28;20653;-48
2021/07/09 04:30:37;;;;;;;8.23;7.40;;;18.60;99.90;;;;;;5069955;28;20657;-49
2021/07/09 04:33:04;;;;;;;7.90;7.20;;;18.70;99.90;;;;;;5070257;28;20657;-48
2021/07/09 04:35:33;;;;;;;9.57;7.00;;;18.70;99.90;;;;;;5069585;28;20664;-50
2021/07/09 04:38:00;;;;;;;8.23;6.37;;;18.70;99.90;;;;;;5061957;28;20650;-48
2021/07/09 04:40:27;;;;;;;6.93;6.40;;;18.70;99.90;;;;;;5049646;28;20630;-49
2021/07/09 04:42:54;;;;;;;7.70;7.00;;;18.70;99.90;;;;;;5055847;28;20791;-49
2021/07/09 04:45:22;;;;;;;8.30;7.60;;;18.60;99.90;;;;;;5060339;28;20654;-50
2021/07/09 04:47:49;;;;;;;7.97;7.27;;;18.60;99.90;;;;;;5050132;28;20685;-49
2021/07/09 04:50:16;;;;;;;6.73;6.10;;;18.60;99.90;;;;;;5049630;28;20682;-51
2021/07/09 04:52:45;;;;;;;8.73;7.80;;;18.60;99.90;;;;;;5053868;28;20665;-49
2021/07/09 04:55:13;;;;;;;6.67;6.17;;;18.60;99.90;;;;;;5068147;28;20649;-50
2021/07/09 04:57:40;;;;;;;9.10;7.10;;;18.60;99.90;;;;;;5069427;28;20657;-50
2021/07/09 05:00:09;;;;;;;8.20;7.47;;;18.60;99.90;;;;;;5069695;28;20671;-50
2021/07/09 05:02:37;;;;;;;8.10;7.40;;;18.50;99.90;;;;;;5038826;28;20654;-51
2021/07/09 05:05:06;;;;;;;8.20;7.60;;;18.50;99.90;;;;;;5049820;28;20694;-51
2021/07/09 05:07:34;;;;;;;11.03;9.00;;;18.50;99.90;;;;;;5049686;28;20689;-49
2021/07/09 05:10:02;;;;;;;8.23;7.43;;;18.50;99.90;;;;;;5049387;28;20642;-50
2021/07/09 05:12:29;;;;;;;6.80;6.20;;;18.50;99.90;;;;;;5050288;28;21068;-50
2021/07/09 05:14:57;;;;;;;8.77;8.07;;;18.50;99.90;;;;;;5049544;28;20661;-50
2021/07/09 05:17:24;;;;;;;7.87;7.20;;;18.50;99.90;;;;;;5049229;28;20693;-49
2021/07/09 05:19:52;;;;;;;8.23;7.33;;;18.50;99.90;;;;;;5049794;28;20613;-49
2021/07/09 05:22:20;;;;;;;11.80;8.33;;;18.50;99.90;;;;;;5050103;28;20722;-50
2021/07/09 05:24:47;;;;;;;8.30;7.50;;;18.50;99.90;;;;;;5049583;28;20661;-50
2021/07/09 05:27:16;;;;;;;9.10;8.20;;;18.50;99.90;;;;;;5049411;28;20784;-50
2021/07/09 05:29:43;;;;;;;9.10;8.33;;;18.50;99.90;;;;;;5049206;28;20654;-49
2021/07/09 05:32:10;;;;;;;9.73;8.83;;;18.50;99.90;;;;;;5049365;28;20948;-50
2021/07/09 05:34:37;;;;;;;10.00;9.03;;;18.50;99.90;;;;;;5049474;28;20634;-48
2021/07/09 05:37:05;;;;;;;11.13;10.13;;;18.50;99.90;;;;;;5049253;28;20686;-50
2021/07/09 05:39:32;;;;;;;9.40;8.70;;;18.50;99.90;;;;;;5049901;28;20684;-49
2021/07/09 05:42:00;;;;;;;11.70;10.60;;;18.50;99.90;;;;;;5048973;28;20630;-49
2021/07/09 05:44:29;;;;;;;10.83;9.70;;;18.50;99.90;;;;;;5049494;28;20967;-49
2021/07/09 05:46:57;;;;;;;11.53;10.53;;;18.50;99.90;;;;;;5050065;28;20680;-49
2021/07/09 05:49:24;;;;;;;13.87;11.87;;;18.40;99.90;;;;;;5054117;28;20684;-49
2021/07/09 05:51:51;;;;;;;11.83;10.63;;;18.40;99.90;;;;;;5054042;28;20681;-49
2021/07/09 05:54:19;;;;;;;13.47;12.30;;;18.50;99.90;;;;;;5054042;28;20653;-49
2021/07/09 05:56:46;;;;;;;13.03;11.70;;;18.40;99.90;;;;;;5053192;28;20689;-49
2021/07/09 05:59:14;;;;;;;12.60;11.50;;;18.40;99.90;;;;;;5053598;28;20695;-49
2021/07/09 06:01:42;;;;;;;11.60;10.67;;;18.40;99.90;;;;;;5053159;28;20696;-48
2021/07/09 06:04:10;;;;;;;12.10;10.83;;;18.40;99.90;;;;;;5052985;28;21244;-50
2021/07/09 06:06:37;;;;;;;10.43;9.37;;;18.40;99.90;;;;;;5053283;28;20665;-48
2021/07/09 06:09:05;;;;;;;12.73;11.43;;;18.40;99.90;;;;;;5053762;28;20617;-48
2021/07/09 06:11:32;;;;;;;13.80;12.50;;;18.40;99.90;;;;;;5052675;28;20669;-49
2021/07/09 06:13:59;;;;;;;13.50;12.07;;;18.40;99.90;;;;;;5053218;28;20638;-49
2021/07/09 06:16:26;;;;;;;12.93;11.83;;;18.40;99.90;;;;;;5052227;28;20716;-49
2021/07/09 06:18:55;;;;;;;12.33;11.13;;;18.40;99.90;;;;;;5052716;28;20990;-49
2021/07/09 06:21:22;;;;;;;13.23;11.20;;;18.40;99.90;;;;;;5052540;28;20662;-49
2021/07/09 06:23:50;;;;;;;13.43;12.20;;;18.40;99.90;;;;;;5052535;28;21035;-49
2021/07/09 06:26:17;;;;;;;13.90;12.63;;;18.40;99.90;;;;;;5052039;28;20685;-49
2021/07/09 06:28:44;;;;;;;15.60;13.80;;;18.40;99.90;;;;;;5034897;28;20683;-50
2021/07/09 06:31:11;;;;;;;16.03;14.33;;;18.40;99.90;;;;;;5052825;28;21190;-48
2021/07/09 06:33:39;;;;;;;15.77;14.30;;;18.40;99.90;;;;;;5053327;28;21009;-51
2021/07/09 06:36:07;;;;;;;14.30;12.80;;;18.40;99.90;;;;;;5052246;28;20693;-49
2021/07/09 06:38:34;;;;;;;17.03;14.30;;;18.40;99.90;;;;;;5052968;28;20634;-49
2021/07/09 06:44:52;;;;;;;13.00;11.80;;;18.40;99.90;;;;;;5051334;28;20641;-49
2021/07/09 06:47:20;;;;;;;14.57;13.37;;;18.40;99.90;;;;;;5052578;28;20661;-50
2021/07/09 06:49:48;;;;;;;15.17;13.70;;;18.40;99.90;;;;;;5052620;28;20652;-50
2021/07/09 06:52:25;;;;;;;14.37;13.03;;;18.40;99.90;;;;;;5053039;28;20683;-53
2021/07/09 06:54:52;;;;;;;15.13;13.53;;;18.40;99.90;;;;;;5053214;28;20676;-50
2021/07/09 06:57:29;;;;;;;14.47;13.27;;;18.50;99.90;;;;;;5053558;28;20708;-52
2021/07/09 06:59:57;;;;;;;16.67;15.20;;;18.50;99.90;;;;;;5051711;28;20645;-49
2021/07/09 07:02:27;;;;;;;15.43;14.10;;;18.60;99.90;;;;;;5053029;28;20732;-50
2021/07/09 07:04:54;;;;;;;14.80;13.40;;;18.60;99.90;;;;;;5052181;28;20694;-50
2021/07/09 07:07:22;;;;;;;15.07;13.70;;;18.60;99.90;;;;;;5034725;28;20693;-50
2021/07/09 07:09:50;;;;;;;15.00;13.60;;;18.60;99.90;;;;;;5051945;28;20994;-50
2021/07/09 07:12:17;;;;;;;15.30;13.77;;;18.60;99.90;;;;;;5051541;28;21287;-51
2021/07/09 07:14:45;;;;;;;17.13;15.63;;;18.50;99.90;;;;;;5050509;28;20640;-50
2021/07/09 07:17:12;;;;;;;15.27;13.80;;;18.60;99.90;;;;;;5050852;28;21025;-51
2021/07/09 07:19:39;;;;;;;16.07;14.67;;;18.50;99.90;;;;;;5052102;28;20702;-49
2021/07/09 07:22:07;;;;;;;17.13;15.63;;;18.60;99.90;;;;;;5051849;28;20660;-49
2021/07/09 07:24:34;;;;;;;16.63;15.20;;;18.60;99.90;;;;;;5051672;28;20617;-48
2021/07/09 07:27:03;;;;;;;16.60;14.90;;;18.60;99.90;;;;;;5051532;28;20694;-50
2021/07/09 07:29:30;;;;;;;16.43;15.13;;;18.60;99.90;;;;;;5051885;28;20661;-49
2021/07/09 07:31:58;;;;;;;17.27;15.57;;;18.50;99.90;;;;;;5052451;28;20645;-49
2021/07/09 07:34:25;;;;;;;17.67;16.20;;;18.50;99.90;;;;;;5052699;28;20648;-49
2021/07/09 07:36:52;;;;;;;16.50;14.80;;;18.50;99.90;;;;;;5033772;28;20674;-49
2021/07/09 07:39:19;;;;;;;20.83;18.30;;;18.50;99.90;;;;;;5052022;28;20630;-49
2021/07/09 07:41:46;;;;;;;19.20;17.50;;;18.50;99.90;;;;;;5051277;28;20657;-50
2021/07/09 07:44:15;;;;;;;18.43;16.60;;;18.50;99.90;;;;;;5051337;28;21267;-48
2021/07/09 07:46:46;;;;;;;19.43;17.37;;;18.50;99.90;;;;;;5044765;28;20716;-49
2021/07/09 07:49:13;;;;;;;19.30;17.70;;;18.50;99.90;;;;;;5033042;28;20638;-51
2021/07/09 07:51:40;;;;;;;19.53;17.80;;;18.50;99.90;;;;;;5050235;28;20986;-50
2021/07/09 07:54:08;;;;;;;20.60;18.63;;;18.60;99.90;;;;;;5050317;28;20622;-51
2021/07/09 07:56:35;;;;;;;21.50;19.37;;;18.60;99.90;;;;;;5032782;28;20669;-51
2021/07/09 07:59:05;;;;;;;21.77;19.57;;;18.60;99.90;;;;;;5051337;28;21030;-54
2021/07/09 08:01:37;;;;;;;17.73;15.97;;;18.60;99.90;;;;;;5033629;28;20630;-51
2021/07/09 08:04:04;;;;;;;19.57;17.77;;;18.50;99.90;;;;;;5051229;28;20622;-50
2021/07/09 08:06:34;;;;;;;23.60;21.30;;;18.40;99.90;;;;;;5051785;28;20705;-50
2021/07/09 08:09:01;;;;;;;23.97;21.53;;;18.50;99.90;;;;;;5051318;28;20638;-49
2021/07/09 08:11:28;;;;;;;23.27;20.93;;;18.50;99.90;;;;;;5050148;28;21047;-51
2021/07/09 08:13:56;;;;;;;23.10;20.97;;;18.60;99.90;;;;;;5051139;28;21191;-53
2021/07/09 08:16:26;;;;;;;23.90;21.63;;;18.60;99.90;;;;;;5051246;28;20669;-51
2021/07/09 08:18:57;;;;;;;26.13;23.30;;;18.60;99.90;;;;;;5051733;28;21257;-51
2021/07/09 08:21:26;;;;;;;25.23;23.00;;;18.70;99.90;;;;;;5051212;28;20768;-51
2021/07/09 08:23:55;;;;;;;24.20;21.90;;;18.70;99.90;;;;;;5051203;28;20632;-52
2021/07/09 08:26:26;;;;;;;25.13;22.63;;;18.70;99.90;;;;;;5050690;28;20694;-51
2021/07/09 08:28:53;;;;;;;25.23;22.80;;;18.70;99.90;;;;;;5033190;28;21005;-50
2021/07/09 08:31:24;;;;;;;26.30;23.90;;;18.70;99.90;;;;;;5049998;28;20634;-50
2021/07/09 08:33:52;;;;;;;24.90;22.30;;;18.70;99.90;;;;;;5050923;28;20757;-52
2021/07/09 08:36:21;;;;;;;27.40;24.97;;;18.70;99.90;;;;;;5050689;28;20711;-49
2021/07/09 08:38:50;;;;;;;26.83;24.43;;;18.70;99.90;;;;;;5051204;28;20602;-50
2021/07/09 08:41:18;;;;;;;28.40;25.70;;;18.70;99.90;;;;;;5051095;28;20658;-49
2021/07/09 08:43:45;;;;;;;30.07;27.23;;;18.70;99.90;;;;;;5051089;28;21247;-50
2021/07/09 08:46:13;;;;;;;27.33;24.67;;;18.80;99.90;;;;;;5050189;28;20693;-50
2021/07/09 08:48:43;;;;;;;30.97;28.00;;;18.80;99.90;;;;;;5050556;28;20626;-51
2021/07/09 08:51:10;;;;;;;28.33;25.83;;;18.80;99.90;;;;;;5050820;28;20657;-50
2021/07/09 08:53:39;;;;;;;27.47;25.17;;;18.90;99.90;;;;;;5050263;28;20657;-51
2021/07/09 08:56:07;;;;;;;26.73;24.00;;;18.90;99.90;;;;;;5050780;28;20713;-51
2021/07/09 08:58:34;;;;;;;29.53;26.63;;;18.90;99.90;;;;;;5050699;28;20614;-49
2021/07/09 09:01:04;;;;;;;27.00;24.50;;;18.90;99.90;;;;;;5032308;28;21214;-51
2021/07/09 09:03:31;;;;;;;28.60;26.10;;;18.90;99.90;;;;;;5050425;28;20662;-49
2021/07/09 09:06:00;;;;;;;29.00;26.00;;;18.90;99.90;;;;;;5050189;28;21276;-48
2021/07/09 09:08:32;;;;;;;28.50;25.63;;;18.90;99.90;;;;;;5049608;28;20672;-50
2021/07/09 09:11:01;;;;;;;28.63;25.93;;;18.80;99.90;;;;;;5049365;28;20630;-49
2021/07/09 09:13:35;;;;;;;30.67;27.50;;;18.80;99.90;;;;;;5049752;28;20669;-52
2021/07/09 09:16:04;;;;;;;29.60;27.00;;;18.80;99.90;;;;;;5049465;28;20681;-55
2021/07/09 09:18:33;;;;;;;28.13;25.40;;;18.80;99.90;;;;;;5050048;28;21143;-50
2021/07/09 09:21:02;;;;;;;27.93;25.57;;;18.80;99.90;;;;;;5050068;28;20669;-53
2021/07/09 09:23:31;;;;;;;28.77;25.83;;;18.80;99.90;;;;;;5032316;28;20696;-54
2021/07/09 09:25:58;;;;;;;31.13;28.43;;;18.90;99.90;;;;;;5049082;28;20697;-52
2021/07/09 09:28:27;;;;;;;31.47;28.43;;;18.90;99.90;;;;;;5049651;28;20630;-52
2021/07/09 09:30:55;;;;;;;30.67;28.10;;;19.00;99.90;;;;;;5049594;28;20684;-51
2021/07/09 09:33:24;;;;;;;26.60;24.20;;;19.10;99.90;;;;;;5050176;28;21047;-51
2021/07/09 09:35:55;;;;;;;29.07;26.13;;;19.20;99.90;;;;;;5049494;28;20626;-52
2021/07/09 09:38:26;;;;;;;27.83;25.23;;;19.20;99.90;;;;;;5049496;28;20654;-51
2021/07/09 09:40:53;;;;;;;26.63;24.10;;;19.20;99.90;;;;;;5031667;28;20657;-50
2021/07/09 09:43:24;;;;;;;26.33;23.93;;;19.20;99.90;;;;;;5050086;28;20661;-52
2021/07/09 09:46:01;;;;;;;27.10;24.80;;;19.20;99.90;;;;;;5049456;28;20719;-49
2021/07/09 09:48:39;;;;;;;29.27;26.30;;;19.20;99.90;;;;;;5049974;28;20629;-49
2021/07/09 09:51:24;;;;;;;31.37;28.23;;;19.30;99.90;;;;;;5049550;28;20666;-51
2021/07/09 09:53:53;;;;;;;27.17;24.87;;;19.30;99.90;;;;;;5050373;28;20672;-49
2021/07/09 09:56:31;;;;;;;26.73;24.33;;;19.40;99.90;;;;;;5050458;28;20638;-49
2021/07/09 09:59:18;;;;;;;24.83;22.40;;;19.40;99.90;;;;;;5050862;28;20753;-50
2021/07/09 10:01:51;;;;;;;23.40;21.23;;;19.40;99.90;;;;;;5049703;28;20622;-51
2021/07/09 10:04:27;;;;;;;25.13;22.73;;;19.50;99.90;;;;;;5050667;28;20625;-52
2021/07/09 10:06:58;;;;;;;24.77;22.37;;;19.50;99.90;;;;;;5050555;28;21049;-51
2021/07/09 10:09:27;;;;;;;26.27;23.77;;;19.60;99.90;;;;;;5050009;28;20662;-50
2021/07/09 10:11:56;;;;;;;25.97;23.50;;;19.60;99.90;;;;;;5050192;28;20637;-50
2021/07/09 10:14:36;;;;;;;27.30;24.60;;;19.70;99.90;;;;;;5050564;28;20625;-50
2021/07/09 10:17:09;;;;;;;24.53;22.40;;;19.70;99.90;;;;;;5032264;28;20753;-50
2021/07/09 10:19:38;;;;;;;27.37;25.07;;;19.90;99.90;;;;;;5032223;28;20638;-51
2021/07/09 10:22:06;;;;;;;24.90;22.77;;;19.90;99.90;;;;;;5056931;28;20641;-51
2021/07/09 10:24:33;;;;;;;26.20;23.80;;;20.00;99.90;;;;;;5049249;28;20663;-49
2021/07/09 10:27:08;;;;;;;25.23;22.63;;;20.10;99.90;;;;;;5050316;28;20706;-52
2021/07/09 10:29:41;;;;;;;24.23;21.70;;;20.20;99.90;;;;;;5031920;28;20652;-54
2021/07/09 10:32:12;;;;;;;21.97;19.87;;;20.20;99.20;;;;;;5050328;28;20630;-52
2021/07/09 10:34:41;;;;;;;22.37;20.53;;;20.20;99.30;;;;;;5033818;28;21285;-50
2021/07/09 10:37:17;;;;;;;23.63;21.40;;;20.20;99.10;;;;;;5052059;28;21279;-55
2021/07/09 10:39:47;;;;;;;23.37;21.10;;;20.20;99.00;;;;;;5053179;28;20756;-51
2021/07/09 10:42:23;;;;;;;22.93;20.90;;;20.30;99.10;;;;;;5055733;28;20629;-50
2021/07/09 10:45:01;;;;;;;23.47;21.23;;;20.30;99.10;;;;;;5053323;28;21131;-48
2021/07/09 10:47:43;;;;;;;26.23;22.70;;;20.30;98.80;;;;;;5053068;28;21264;-51
2021/07/09 10:50:11;;;;;;;23.33;21.17;;;20.30;98.80;;;;;;5053704;28;21194;-50
2021/07/09 10:52:49;;;;;;;23.93;21.63;;;20.30;99.10;;;;;;5053240;28;20750;-50
2021/07/09 10:55:45;;;;;;;23.90;21.70;;;20.30;99.00;;;;;;5053205;28;21175;-50
2021/07/09 10:58:43;;;;;;;21.03;19.03;;;20.50;99.10;;;;;;5054032;28;20626;-49
2021/07/09 11:01:12;;;;;;;21.07;19.27;;;20.60;97.90;;;;;;5053156;28;20614;-49
2021/07/09 11:03:41;;;;;;;21.40;19.30;;;20.60;97.50;;;;;;5053427;28;21002;-49
2021/07/09 11:06:09;;;;;;;22.17;20.23;;;20.60;97.60;;;;;;5052477;28;20974;-49
2021/07/09 11:08:53;;;;;;;21.50;19.70;;;20.60;97.70;;;;;;5052545;28;20693;-51
2021/07/09 11:11:43;;;;;;;21.23;19.30;;;20.70;98.00;;;;;;5052292;28;21135;-52
2021/07/09 11:14:12;;;;;;;21.10;19.20;;;20.80;97.90;;;;;;5052098;28;21092;-50
2021/07/09 11:16:40;;;;;;;24.80;22.10;;;21.00;97.90;;;;;;5051984;28;20653;-48
2021/07/09 11:19:14;;;;;;;22.43;20.17;;;21.10;97.40;;;;;;5052393;28;20636;-51
2021/07/09 11:22:06;;;;;;;18.57;16.80;;;21.10;97.40;;;;;;5050993;28;21143;-49
2021/07/09 11:24:36;;;;;;;16.63;15.03;;;21.20;97.00;;;;;;5051769;28;20973;-49
2021/07/09 11:27:04;;;;;;;15.57;14.10;;;21.30;96.40;;;;;;5054768;28;20704;-50
2021/07/09 11:29:36;;;;;;;16.83;15.20;;;21.40;95.70;;;;;;5052211;28;20962;-49
2021/07/09 11:32:12;;;;;;;12.63;11.53;;;21.40;95.40;;;;;;5052138;28;20708;-50
2021/07/09 11:34:43;;;;;;;10.23;9.20;;;21.50;95.10;;;;;;5052719;28;20763;-50
2021/07/09 11:37:11;;;;;;;12.13;10.93;;;21.60;94.50;;;;;;5051926;28;20650;-49
2021/07/09 11:39:39;;;;;;;11.60;10.43;;;21.70;94.30;;;;;;5052030;28;20719;-50
2021/07/09 11:42:11;;;;;;;11.50;10.30;;;21.90;93.70;;;;;;5033884;28;21200;-49
2021/07/09 11:44:40;;;;;;;12.10;11.00;;;22.00;93.80;;;;;;5033835;28;20701;-51
2021/07/09 11:47:09;;;;;;;10.40;9.60;;;22.10;93.00;;;;;;5050693;28;20698;-49
2021/07/09 11:49:40;;;;;;;12.67;10.90;;;22.10;92.40;;;;;;5051957;28;20650;-51
2021/07/09 11:52:09;;;;;;;10.13;9.43;;;22.10;92.60;;;;;;5049486;28;20699;-50
2021/07/09 11:54:38;;;;;;;10.80;9.60;;;22.20;92.70;;;;;;5051674;28;20734;-51
2021/07/09 11:57:10;;;;;;;9.40;8.63;;;22.20;92.20;;;;;;5051572;28;20689;-53
2021/07/09 11:59:38;;;;;;;9.77;8.30;;;22.20;92.00;;;;;;5051193;28;20650;-50
2021/07/09 12:02:14;;;;;;;9.43;8.73;;;22.20;91.80;;;;;;5051228;28;20661;-51
2021/07/09 12:04:43;;;;;;;9.40;8.70;;;22.20;91.70;;;;;;5051948;28;20652;-53
2021/07/09 12:07:35;;;;;;;10.97;9.90;;;22.20;91.40;;;;;;5051788;28;21262;-51
2021/07/09 12:10:12;;;;;;;10.67;9.77;;;22.20;91.60;;;;;;5051305;28;20676;-49
2021/07/09 12:12:42;;;;;;;10.13;8.50;;;22.20;91.50;;;;;;5033867;28;20621;-49
2021/07/09 12:15:11;;;;;;;8.70;7.90;;;22.10;91.40;;;;;;5051346;28;20630;-49
2021/07/09 12:17:44;;;;;;;7.93;7.23;;;22.00;90.90;;;;;;5051128;28;20688;-51
2021/07/09 12:20:19;;;;;;;9.83;8.30;;;22.10;90.70;;;;;;5052198;28;20622;-52
2021/07/09 12:22:54;;;;;;;8.30;7.60;;;22.00;90.60;;;;;;5049221;28;20669;-51
2021/07/09 12:25:26;;;;;;;9.63;8.90;;;22.00;90.30;;;;;;5051289;28;20685;-50
2021/07/09 12:27:59;;;;;;;9.00;8.10;;;22.00;90.40;;;;;;5051607;28;20805;-50
2021/07/09 12:30:27;;;;;;;6.80;6.27;;;22.00;90.60;;;;;;5032568;28;20622;-50
2021/07/09 12:32:58;;;;;;;6.60;6.10;;;22.00;90.80;;;;;;5051386;28;20665;-50
2021/07/09 12:35:26;;;;;;;7.63;6.73;;;22.10;90.00;;;;;;5033606;28;20618;-51
2021/07/09 12:38:00;;;;;;;8.37;7.57;;;22.10;89.40;;;;;;5050943;28;20741;-53
2021/07/09 12:40:32;;;;;;;7.10;6.50;;;22.10;89.50;;;;;;5050319;28;21212;-49
2021/07/09 12:43:14;;;;;;;7.43;6.83;;;22.20;88.50;;;;;;5050840;28;20658;-49
2021/07/09 12:45:46;;;;;;;9.03;7.00;;;22.30;89.20;;;;;;5051059;28;20657;-50
2021/07/09 12:48:36;;;;;;;8.30;6.57;;;22.30;89.30;;;;;;5051796;28;21051;-53
2021/07/09 12:51:17;;;;;;;6.70;6.10;;;22.30;89.00;;;;;;5050855;28;20660;-50
2021/07/09 12:53:53;;;;;;;7.30;6.47;;;22.30;88.70;;;;;;5033490;28;20618;-48